Time;durP1;ratioP1;P1;durP2;ratioP2;P2;SDS_P1;SDS_P2;PMS_P1;PMS_P2;Temp;Humidity;BMP_temperature;BMP_pressure;BME280_temperature;BME280_humidity;BME280_pressure;Samples;Min_cycle;Max_cycle;Signal;HPM_P1;HPM_P2
2021/11/03 00:01:22;;;;;;;16.42;10.90;;;;;;;7.97;64.32;99476.94;4412144;32;33171;-85
2021/11/03 00:03:51;;;;;;;17.75;12.07;;;;;;;7.99;64.30;99481.19;4434264;32;33578;-85
2021/11/03 00:06:21;;;;;;;17.35;11.00;;;;;;;7.89;64.67;99494.44;4411111;32;34177;-85
2021/11/03 00:08:50;;;;;;;15.57;9.98;;;;;;;8.06;63.86;99491.41;4413535;32;34693;-86
2021/11/03 00:11:19;;;;;;;16.37;10.65;;;;;;;8.34;62.20;99489.84;4438830;32;33014;-85
2021/11/03 00:13:46;;;;;;;16.20;10.07;;;;;;;8.31;61.54;99496.84;4425925;32;32854;-85
2021/11/03 00:16:14;;;;;;;15.27;10.13;;;;;;;7.67;63.29;99500.97;4424474;32;34272;-86
2021/11/03 00:18:43;;;;;;;17.17;11.10;;;;;;;7.73;62.48;99502.56;4406952;32;33726;-85
2021/11/03 00:21:12;;;;;;;13.85;9.73;;;;;;;7.59;63.28;99512.41;4433189;32;33460;-85
2021/11/03 00:23:41;;;;;;;16.48;10.60;;;;;;;7.53;64.10;99508.22;4425488;32;33678;-85
2021/11/03 00:26:09;;;;;;;16.90;11.65;;;;;;;7.85;63.58;99504.87;4423735;32;34238;-85
2021/11/03 00:28:37;;;;;;;15.80;10.65;;;;;;;7.89;63.43;99503.06;4423793;32;33466;-86
2021/11/03 00:31:06;;;;;;;14.93;10.10;;;;;;;7.75;63.17;99506.00;4426394;32;31891;-85
2021/11/03 00:33:35;;;;;;;14.48;9.95;;;;;;;7.79;61.80;99505.03;4432939;32;33877;-85
2021/11/03 00:36:03;;;;;;;14.20;9.88;;;;;;;7.25;63.36;99503.63;4432075;32;32997;-86
2021/11/03 00:38:33;;;;;;;17.08;11.00;;;;;;;7.06;64.22;99502.28;4425386;32;34299;-85
2021/11/03 00:41:04;;;;;;;15.05;10.80;;;;;;;7.58;62.93;99513.28;4412716;32;33289;-85
2021/11/03 00:43:32;;;;;;;15.98;11.00;;;;;;;7.34;64.20;99510.34;4439655;32;33907;-86
2021/11/03 00:46:00;;;;;;;19.40;11.57;;;;;;;6.68;66.81;99517.69;4427357;32;34490;-86
2021/11/03 00:48:28;;;;;;;17.58;10.85;;;;;;;6.50;68.02;99521.47;4412096;32;32810;-85
2021/11/03 00:50:57;;;;;;;14.32;10.35;;;;;;;6.83;67.46;99530.38;4443213;32;32445;-85
2021/11/03 00:53:25;;;;;;;15.38;10.07;;;;;;;7.19;66.40;99529.66;4425817;32;32706;-86
2021/11/03 00:55:56;;;;;;;17.05;10.70;;;;;;;7.34;65.90;99523.31;4440002;32;34532;-86
2021/11/03 00:58:24;;;;;;;18.85;10.60;;;;;;;7.26;66.47;99528.66;4411951;32;32832;-84
2021/11/03 01:00:52;;;;;;;16.70;11.20;;;;;;;7.31;66.66;99528.53;4424908;32;32356;-86
2021/11/03 01:03:21;;;;;;;14.65;9.82;;;;;;;7.76;64.55;99527.59;4422341;32;33109;-85
2021/11/03 01:05:51;;;;;;;14.40;9.48;;;;;;;7.78;63.52;99531.84;4414527;32;34917;-86
2021/11/03 01:08:19;;;;;;;15.20;10.45;;;;;;;7.14;64.78;99539.25;4425237;32;32784;-85
2021/11/03 01:10:50;;;;;;;12.82;9.15;;;;;;;7.18;65.07;99539.16;4440417;32;32453;-86
2021/11/03 01:13:20;;;;;;;14.38;9.95;;;;;;;7.38;64.33;99540.50;4440374;32;32959;-86
2021/11/03 01:15:50;;;;;;;14.98;9.70;;;;;;;7.31;64.36;99555.34;4425094;32;32908;-85
2021/11/03 01:18:18;;;;;;;14.23;9.27;;;;;;;7.62;63.10;99551.25;4430004;32;33852;-85
2021/11/03 01:20:46;;;;;;;11.85;8.02;;;;;;;7.14;64.25;99549.63;4419663;32;32601;-86
2021/11/03 01:23:15;;;;;;;13.35;8.57;;;;;;;7.37;63.81;99550.91;4425502;32;34631;-85
2021/11/03 01:25:43;;;;;;;15.02;9.50;;;;;;;7.43;63.15;99555.94;4426176;32;34150;-85
2021/11/03 01:28:11;;;;;;;13.10;8.88;;;;;;;7.33;62.78;99561.31;4427361;32;33676;-86
2021/11/03 01:30:40;;;;;;;13.52;8.38;;;;;;;7.40;62.49;99558.63;4437976;32;32244;-86
2021/11/03 01:33:07;;;;;;;11.57;8.38;;;;;;;7.30;62.55;99563.12;4433445;32;32718;-85
2021/11/03 01:35:35;;;;;;;14.65;8.70;;;;;;;7.12;63.57;99552.25;4426867;32;33749;-85
2021/11/03 01:38:06;;;;;;;13.48;8.70;;;;;;;6.93;64.45;99553.50;4428268;32;34129;-85
2021/11/03 01:40:40;;;;;;;13.38;7.90;;;;;;;6.73;65.46;99549.53;4439789;32;33345;-86
2021/11/03 01:43:16;;;;;;;13.65;8.13;;;;;;;7.11;63.74;99547.09;4452533;32;33834;-85
2021/11/03 01:45:47;;;;;;;13.18;8.55;;;;;;;7.06;64.15;99557.56;4424961;32;34177;-86
2021/11/03 01:48:15;;;;;;;12.37;8.55;;;;;;;7.16;64.08;99551.28;4399869;32;32823;-86
2021/11/03 01:50:55;;;;;;;14.05;8.27;;;;;;;7.05;64.25;99558.44;4411332;32;33830;-85
2021/11/03 01:53:29;;;;;;;12.55;8.27;;;;;;;7.04;64.15;99563.66;4434340;32;32454;-85
2021/11/03 01:56:03;;;;;;;13.05;8.48;;;;;;;6.62;64.93;99556.63;4433518;32;34358;-86
2021/11/03 01:58:44;;;;;;;12.73;7.97;;;;;;;6.80;63.93;99555.47;4439551;32;34123;-85
2021/11/03 02:01:12;;;;;;;14.57;8.60;;;;;;;6.92;63.44;99554.38;4439811;32;33709;-85
2021/11/03 02:03:41;;;;;;;13.88;8.70;;;;;;;6.24;65.15;99550.38;4438599;32;33364;-86
2021/11/03 02:06:14;;;;;;;12.10;7.97;;;;;;;6.62;64.45;99541.97;4431088;32;33477;-85
2021/11/03 02:08:45;;;;;;;10.82;7.65;;;;;;;7.03;63.15;99542.06;4414541;32;34783;-85
2021/11/03 02:11:15;;;;;;;13.02;8.95;;;;;;;6.44;65.19;99540.53;4424829;32;32274;-86
2021/11/03 02:13:44;;;;;;;11.30;8.02;;;;;;;6.58;64.99;99540.31;4439412;32;34421;-85
2021/11/03 02:16:15;;;;;;;13.73;8.38;;;;;;;6.44;65.38;99543.13;4414143;32;33561;-85
2021/11/03 02:18:44;;;;;;;12.98;8.55;;;;;;;6.97;63.86;99555.16;4423367;32;33554;-85
2021/11/03 02:21:24;;;;;;;11.88;7.78;;;;;;;6.92;63.72;99557.81;4418177;32;32648;-85
2021/11/03 02:24:01;;;;;;;13.48;8.23;;;;;;;7.04;63.34;99550.69;4435566;32;34160;-85
2021/11/03 02:26:32;;;;;;;12.07;8.32;;;;;;;7.15;62.96;99553.91;4411729;32;33804;-85
2021/11/03 02:29:05;;;;;;;11.00;7.60;;;;;;;7.32;62.02;99548.41;4412310;32;33991;-85
2021/11/03 02:31:48;;;;;;;14.20;7.55;;;;;;;7.31;62.10;99555.34;4425069;32;32483;-86
2021/11/03 02:34:20;;;;;;;10.40;7.28;;;;;;;7.33;61.74;99557.88;4433018;32;34946;-85
2021/11/03 02:36:56;;;;;;;11.23;7.10;;;;;;;6.76;63.31;99561.56;4426306;32;33922;-85
2021/11/03 02:39:36;;;;;;;12.20;8.45;;;;;;;6.83;63.14;99560.56;4431426;32;32574;-86
2021/11/03 02:42:06;;;;;;;12.50;7.80;;;;;;;6.57;64.49;99561.03;4424690;32;33124;-86
2021/11/03 02:44:36;;;;;;;13.18;8.07;;;;;;;6.86;63.70;99550.19;4424716;32;34290;-85
2021/11/03 02:47:06;;;;;;;12.25;8.07;;;;;;;6.76;63.35;99559.81;4437912;32;33850;-85
2021/11/03 02:49:39;;;;;;;13.95;9.02;;;;;;;6.99;62.29;99561.13;4420687;32;33740;-85
2021/11/03 02:52:13;;;;;;;12.18;8.85;;;;;;;6.79;62.46;99553.75;4440062;32;33851;-86
2021/11/03 02:54:41;;;;;;;15.63;9.13;;;;;;;6.58;63.28;99561.03;4424653;32;33908;-86
2021/11/03 02:57:09;;;;;;;14.20;9.00;;;;;;;6.41;64.46;99560.44;4399942;32;33751;-85
2021/11/03 02:59:38;;;;;;;13.88;8.43;;;;;;;7.00;62.32;99566.28;4424063;32;33448;-85
2021/11/03 03:02:06;;;;;;;14.90;8.75;;;;;;;6.63;63.78;99573.87;4410976;32;32155;-84
2021/11/03 03:04:42;;;;;;;13.45;7.75;;;;;;;6.81;63.25;99570.97;4430088;32;34081;-85
2021/11/03 03:07:11;;;;;;;13.23;7.82;;;;;;;7.02;62.87;99574.87;4413448;32;34129;-86
2021/11/03 03:09:40;;;;;;;11.98;7.70;;;;;;;6.97;62.74;99568.94;4424622;32;33118;-85
2021/11/03 03:12:11;;;;;;;11.30;7.45;;;;;;;6.88;62.28;99569.13;4437083;32;34727;-86
2021/11/03 03:14:45;;;;;;;11.20;6.70;;;;;;;6.70;62.96;99575.50;4433026;32;34024;-85
2021/11/03 03:17:15;;;;;;;11.80;6.87;;;;;;;6.68;63.06;99578.09;4421984;32;33990;-85
2021/11/03 03:19:44;;;;;;;10.43;6.47;;;;;;;6.39;62.41;99590.69;4432947;32;32386;-85
2021/11/03 03:22:15;;;;;;;9.30;6.12;;;;;;;6.14;62.66;99593.62;4408171;32;33390;-85
2021/11/03 03:24:43;;;;;;;12.20;6.85;;;;;;;6.28;62.24;99589.13;4414369;32;33473;-85
2021/11/03 03:27:11;;;;;;;11.00;6.57;;;;;;;6.08;63.10;99586.00;4423626;32;34373;-86
2021/11/03 03:29:40;;;;;;;11.45;6.50;;;;;;;6.33;62.58;99584.72;4424145;32;33582;-85
2021/11/03 03:32:10;;;;;;;12.00;7.43;;;;;;;6.46;62.94;99592.28;4451851;32;32159;-85
2021/11/03 03:34:38;;;;;;;12.95;7.28;;;;;;;6.58;62.75;99594.69;4439279;32;32611;-85
2021/11/03 03:37:08;;;;;;;10.80;6.65;;;;;;;6.08;64.85;99601.50;4426521;32;33331;-86
2021/11/03 03:39:37;;;;;;;10.77;6.43;;;;;;;6.05;64.32;99597.25;4439443;32;32771;-85
2021/11/03 03:42:09;;;;;;;12.25;6.97;;;;;;;6.59;63.00;99601.53;4414170;32;33440;-85
2021/11/03 03:44:38;;;;;;;11.45;7.15;;;;;;;6.41;63.94;99604.44;4426881;32;33451;-85
2021/11/03 03:47:07;;;;;;;16.55;9.15;;;;;;;6.49;64.00;99608.62;4437742;32;35051;-85
2021/11/03 03:49:35;;;;;;;26.45;10.98;;;;;;;5.61;68.47;99612.44;4437261;32;34206;-85
2021/11/03 03:52:06;;;;;;;37.28;11.55;;;;;;;5.44;70.30;99611.81;4425924;32;33655;-84
2021/11/03 03:54:34;;;;;;;28.17;11.32;;;;;;;5.69;69.31;99608.03;4425030;32;34925;-85
2021/11/03 03:57:03;;;;;;;34.58;13.62;;;;;;;6.05;68.65;99604.13;4423313;32;33084;-84
2021/11/03 03:59:31;;;;;;;42.85;12.70;;;;;;;6.18;68.13;99603.94;4440157;32;33804;-87
2021/11/03 04:02:01;;;;;;;31.60;11.40;;;;;;;5.79;69.88;99605.31;4427180;32;33031;-85
2021/11/03 04:04:30;;;;;;;24.37;11.10;;;;;;;5.92;69.18;99609.44;4439552;32;33425;-85
2021/11/03 04:06:57;;;;;;;33.13;11.90;;;;;;;6.38;67.30;99610.50;4423084;32;33298;-86
2021/11/03 04:09:27;;;;;;;53.72;13.38;;;;;;;6.46;66.92;99608.69;4401920;32;33131;-85
2021/11/03 04:11:57;;;;;;;45.67;13.13;;;;;;;6.00;68.63;99610.22;4434475;32;33928;-85
2021/11/03 04:14:25;;;;;;;41.50;11.70;;;;;;;5.74;70.21;99613.13;4423614;32;33554;-86
2021/11/03 04:16:53;;;;;;;24.95;12.10;;;;;;;5.94;69.92;99615.47;4436334;32;32924;-85
2021/11/03 04:19:22;;;;;;;34.95;11.93;;;;;;;5.43;71.89;99620.44;4411593;32;34642;-85
2021/11/03 04:21:53;;;;;;;60.17;13.55;;;;;;;5.30;73.36;99623.12;4411539;32;31972;-86
2021/11/03 04:24:23;;;;;;;51.37;12.10;;;;;;;5.48;73.36;99616.91;4417687;32;34627;-85
2021/11/03 04:26:53;;;;;;;38.88;11.40;;;;;;;5.78;72.40;99624.28;4405201;32;34145;-85
2021/11/03 04:29:22;;;;;;;46.60;12.30;;;;;;;6.35;70.80;99620.91;4415064;32;32626;-87
2021/11/03 04:31:52;;;;;;;38.85;11.48;;;;;;;6.27;71.42;99633.97;4429101;32;32215;-87
2021/11/03 04:34:21;;;;;;;41.85;11.77;;;;;;;6.20;71.86;99628.94;4438115;32;33908;-84
2021/11/03 04:36:50;;;;;;;55.38;12.52;;;;;;;6.60;70.25;99634.31;4411211;32;34432;-84
2021/11/03 04:39:19;;;;;;;34.33;10.57;;;;;;;6.48;70.28;99637.13;4412966;32;33233;-85
2021/11/03 04:41:49;;;;;;;39.85;11.60;;;;;;;6.67;69.50;99638.53;4450513;32;33661;-86
2021/11/03 04:44:18;;;;;;;44.60;11.20;;;;;;;6.64;69.43;99642.91;4429721;32;34125;-87
2021/11/03 04:46:46;;;;;;;27.08;10.70;;;;;;;6.41;70.51;99657.06;4398253;32;33537;-87
2021/11/03 04:49:15;;;;;;;24.70;10.57;;;;;;;6.65;69.65;99665.34;4407911;32;34937;-84
2021/11/03 04:51:45;;;;;;;24.10;9.55;;;;;;;6.65;69.02;99668.75;4426181;32;32361;-86
2021/11/03 04:54:13;;;;;;;25.48;10.27;;;;;;;6.70;68.93;99663.53;4398543;32;32647;-85
2021/11/03 04:56:41;;;;;;;19.55;9.23;;;;;;;6.83;67.37;99661.56;4432267;32;33923;-85
2021/11/03 04:59:10;;;;;;;24.10;10.23;;;;;;;6.72;67.49;99664.34;4439153;32;33729;-85
2021/11/03 05:01:40;;;;;;;33.33;10.02;;;;;;;6.63;67.46;99667.91;4429120;32;32646;-86
2021/11/03 05:04:09;;;;;;;22.77;9.77;;;;;;;6.54;68.02;99660.31;4427115;32;33404;-85
2021/11/03 05:06:39;;;;;;;22.75;9.25;;;;;;;6.41;68.13;99667.41;4428891;32;33895;-84
2021/11/03 05:09:09;;;;;;;39.63;10.60;;;;;;;6.52;68.46;99660.31;4423891;32;33048;-85
2021/11/03 05:11:38;;;;;;;30.85;10.68;;;;;;;6.25;69.79;99664.19;4438980;32;33106;-86
2021/11/03 05:14:07;;;;;;;31.12;10.07;;;;;;;6.32;70.16;99658.03;4411046;32;33134;-85
2021/11/03 05:16:36;;;;;;;39.97;10.00;;;;;;;6.44;69.93;99657.00;4425871;32;35307;-85
2021/11/03 05:19:05;;;;;;;36.95;10.48;;;;;;;6.42;70.47;99661.38;4439355;32;33918;-85
2021/11/03 05:21:36;;;;;;;38.03;11.50;;;;;;;6.62;70.24;99661.06;4424418;32;31879;-85
2021/11/03 05:24:06;;;;;;;45.53;10.90;;;;;;;6.34;71.45;99658.91;4412485;32;33142;-85
2021/11/03 05:26:34;;;;;;;45.15;12.27;;;;;;;6.73;70.53;99660.00;4414012;32;33403;-85
2021/11/03 05:29:03;;;;;;;47.35;11.95;;;;;;;6.39;72.83;99674.34;4433939;32;34575;-85
2021/11/03 05:31:32;;;;;;;33.38;15.82;;;;;;;6.45;72.59;99670.81;4414154;32;34368;-86
2021/11/03 05:34:00;;;;;;;35.97;15.77;;;;;;;6.18;74.14;99670.31;4426194;32;34164;-85
2021/11/03 05:36:29;;;;;;;36.55;12.73;;;;;;;6.28;74.50;99668.47;4451251;32;33248;-85
2021/11/03 05:39:11;;;;;;;51.25;14.00;;;;;;;6.41;73.65;99669.12;4441495;32;34073;-86
2021/11/03 05:41:39;;;;;;;44.50;13.10;;;;;;;6.73;72.53;99670.38;4428618;32;34000;-86
2021/11/03 05:44:10;;;;;;;46.72;15.07;;;;;;;6.62;73.09;99670.53;4429097;32;33305;-85
2021/11/03 05:46:42;;;;;;;36.15;15.13;;;;;;;6.42;74.45;99676.03;4426401;32;33301;-85
2021/11/03 05:49:14;;;;;;;46.75;15.18;;;;;;;6.30;75.51;99675.34;4438815;32;34100;-85
2021/11/03 05:51:46;;;;;;;37.10;13.52;;;;;;;6.30;75.52;99677.06;4424482;32;31979;-86
2021/11/03 05:54:18;;;;;;;24.60;14.30;;;;;;;6.65;74.43;99680.87;4413228;32;35587;-85
2021/11/03 05:56:47;;;;;;;33.78;14.50;;;;;;;6.61;74.04;99685.22;4438967;32;33450;-85
2021/11/03 05:59:15;;;;;;;51.03;14.43;;;;;;;6.61;74.87;99689.56;4426524;32;32871;-86
2021/11/03 06:01:43;;;;;;;43.28;14.10;;;;;;;6.57;75.13;99690.47;4449531;32;31835;-86
2021/11/03 06:04:12;;;;;;;36.00;14.27;;;;;;;6.75;74.34;99689.34;4448414;32;33111;-85
2021/11/03 06:06:40;;;;;;;34.50;12.88;;;;;;;6.77;74.68;99698.78;4437720;32;34258;-86
2021/11/03 06:09:09;;;;;;;33.95;12.40;;;;;;;6.98;74.07;99694.13;4432750;32;33206;-85
2021/11/03 06:11:39;;;;;;;42.05;13.85;;;;;;;6.57;76.72;99686.16;4439106;32;32997;-85
2021/11/03 06:14:08;;;;;;;38.47;13.48;;;;;;;6.69;76.62;99682.53;4428368;32;33354;-85
2021/11/03 06:16:37;;;;;;;32.83;12.82;;;;;;;6.84;76.06;99692.62;4428401;32;32933;-86
2021/11/03 06:19:05;;;;;;;41.85;13.98;;;;;;;6.90;75.67;99689.09;4419648;32;34399;-86
2021/11/03 06:21:33;;;;;;;29.60;14.25;;;;;;;6.54;77.21;99696.53;4416447;32;32473;-85
2021/11/03 06:24:02;;;;;;;37.67;14.48;;;;;;;6.58;77.57;99694.78;4431843;32;34114;-87
2021/11/03 06:26:31;;;;;;;54.92;13.40;;;;;;;6.90;76.61;99693.41;4424806;32;33388;-87
2021/11/03 06:28:59;;;;;;;37.60;13.85;;;;;;;6.87;76.65;99696.87;4442920;32;33626;-87
2021/11/03 06:31:27;;;;;;;46.75;17.05;;;;;;;7.01;76.06;99705.28;4443542;32;32853;-84
2021/11/03 06:33:57;;;;;;;41.20;15.05;;;;;;;7.00;76.17;99706.16;4442989;32;32934;-84
2021/11/03 06:36:24;;;;;;;28.40;12.52;;;;;;;6.82;76.50;99702.16;4428408;32;33995;-84
2021/11/03 06:38:52;;;;;;;23.75;12.30;;;;;;;7.26;75.54;99714.38;4428433;32;32737;-85
2021/11/03 06:41:22;;;;;;;25.65;12.02;;;;;;;7.53;74.98;99720.81;4438540;32;32376;-83
2021/11/03 06:43:56;;;;;;;27.33;11.68;;;;;;;7.47;75.22;99723.50;4443407;32;32392;-84
2021/11/03 06:46:25;;;;;;;29.02;12.75;;;;;;;7.44;75.02;99724.41;4427941;32;33228;-83
2021/11/03 06:48:53;;;;;;;20.85;11.82;;;;;;;7.55;75.02;99724.19;4415432;32;33344;-84
2021/11/03 06:51:21;;;;;;;24.35;11.52;;;;;;;7.83;74.32;99723.66;4441113;32;33225;-84
2021/11/03 06:53:51;;;;;;;24.92;13.75;;;;;;;7.94;74.52;99723.47;4440947;32;33901;-83
2021/11/03 06:56:19;;;;;;;28.55;11.90;;;;;;;8.16;74.14;99731.66;4430220;32;33415;-83
2021/11/03 06:58:47;;;;;;;23.40;12.13;;;;;;;7.96;74.72;99732.06;4468743;32;34443;-84
2021/11/03 07:01:16;;;;;;;22.92;11.70;;;;;;;7.96;75.14;99727.72;4437313;32;32664;-84
2021/11/03 07:03:45;;;;;;;21.08;10.82;;;;;;;8.21;74.17;99726.37;4451709;32;33188;-84
2021/11/03 07:06:15;;;;;;;19.70;11.88;;;;;;;8.14;74.76;99723.06;4442335;32;33307;-83
2021/11/03 07:08:47;;;;;;;25.10;11.98;;;;;;;8.33;74.09;99723.50;4416727;32;33248;-85
2021/11/03 07:11:15;;;;;;;20.88;11.27;;;;;;;8.72;72.22;99718.31;4416141;32;32296;-84
2021/11/03 07:13:43;;;;;;;21.40;12.27;;;;;;;8.86;71.95;99705.84;4430618;32;33391;-84
2021/11/03 07:16:13;;;;;;;24.12;12.93;;;;;;;9.08;71.07;99710.53;4427968;32;32997;-84
2021/11/03 07:18:41;;;;;;;21.90;12.43;;;;;;;8.77;72.24;99720.81;4415175;32;34047;-84
2021/11/03 07:21:10;;;;;;;23.15;11.85;;;;;;;9.11;71.15;99722.59;4415227;32;33734;-84
2021/11/03 07:23:37;;;;;;;28.55;12.68;;;;;;;9.07;70.92;99732.22;4439890;32;32971;-85
2021/11/03 07:26:06;;;;;;;17.77;11.38;;;;;;;9.08;70.92;99739.12;4430698;32;33847;-85
2021/11/03 07:28:37;;;;;;;21.85;12.27;;;;;;;9.27;70.62;99738.66;4442969;32;32987;-85
2021/11/03 07:31:06;;;;;;;21.65;13.10;;;;;;;9.30;70.57;99735.97;4442643;32;33393;-84
2021/11/03 07:33:36;;;;;;;23.08;13.73;;;;;;;9.25;70.32;99737.84;4442970;32;32014;-84
2021/11/03 07:36:08;;;;;;;23.42;13.62;;;;;;;9.21;70.19;99737.06;4455255;32;32615;-84
2021/11/03 07:38:37;;;;;;;37.53;18.87;;;;;;;9.28;69.97;99738.62;4450694;32;34025;-84
2021/11/03 07:41:25;;;;;;;30.58;18.50;;;;;;;9.25;69.76;99743.88;4429257;32;32884;-84
2021/11/03 07:43:58;;;;;;;32.83;16.95;;;;;;;9.17;70.74;99732.81;4440390;32;34082;-84
2021/11/03 07:46:27;;;;;;;22.87;13.55;;;;;;;9.47;69.65;99736.38;4442617;32;33149;-84
2021/11/03 07:48:56;;;;;;;20.92;12.77;;;;;;;9.47;69.35;99740.75;4439931;32;32224;-84
2021/11/03 07:51:27;;;;;;;24.70;13.20;;;;;;;9.39;69.72;99746.12;4415792;32;33602;-83
2021/11/03 07:53:59;;;;;;;20.23;12.50;;;;;;;9.42;69.25;99746.03;4427177;32;32581;-84
2021/11/03 07:56:29;;;;;;;;;;;;;;;9.26;70.06;99743.00;4435324;32;32817;-84
2021/11/03 07:58:57;;;;;;;20.85;12.07;;;;;;;9.55;69.34;99738.78;4452058;32;34468;-84
2021/11/03 08:01:26;;;;;;;18.60;11.82;;;;;;;9.49;70.16;99744.13;4422808;32;33951;-83
2021/11/03 08:03:55;;;;;;;19.08;11.63;;;;;;;9.45;69.73;99739.91;4441639;32;32482;-84
2021/11/03 08:06:23;;;;;;;19.55;11.70;;;;;;;9.47;70.01;99738.97;4427056;32;33634;-84
2021/11/03 08:09:02;;;;;;;18.67;10.85;;;;;;;9.65;69.41;99744.59;4439662;32;33059;-84
2021/11/03 08:11:49;;;;;;;18.80;11.43;;;;;;;9.49;69.78;99747.63;4428364;32;33226;-84
2021/11/03 08:14:20;;;;;;;15.68;10.63;;;;;;;9.88;68.80;99738.75;4439451;32;33421;-84
2021/11/03 08:17:04;;;;;;;23.00;13.77;;;;;;;9.99;68.63;99735.84;4443847;32;33441;-84
2021/11/03 08:19:38;;;;;;;19.45;12.57;;;;;;;10.01;68.68;99732.31;4440619;32;32983;-84
2021/11/03 08:22:12;;;;;;;36.95;23.52;;;;;;;10.18;68.55;99730.94;4428821;32;33898;-84
2021/11/03 08:24:39;;;;;;;23.65;15.18;;;;;;;9.93;69.82;99741.22;4458353;32;32948;-82
2021/11/03 08:27:08;;;;;;;20.33;12.70;;;;;;;10.06;70.19;99744.34;4442182;32;32465;-82
2021/11/03 08:29:38;;;;;;;20.85;12.23;;;;;;;10.17;69.96;99729.25;4460175;32;33696;-82
2021/11/03 08:32:10;;;;;;;20.15;12.45;;;;;;;10.27;69.72;99727.25;4415149;32;32646;-82
2021/11/03 08:34:39;;;;;;;22.02;12.20;;;;;;;10.32;69.27;99720.97;4417852;32;33986;-84
2021/11/03 08:37:10;;;;;;;27.10;16.25;;;;;;;10.32;69.07;99720.97;4427679;32;33458;-84
2021/11/03 08:39:41;;;;;;;27.83;17.42;;;;;;;10.76;67.91;99717.94;4443717;32;33802;-85
2021/11/03 08:42:09;;;;;;;24.23;15.63;;;;;;;10.86;67.63;99703.69;4442242;32;33907;-83
2021/11/03 08:44:40;;;;;;;21.00;12.95;;;;;;;10.93;67.22;99696.53;4442161;32;32732;-85
2021/11/03 08:47:09;;;;;;;19.80;13.07;;;;;;;11.07;67.01;99700.44;4427078;32;34092;-85
2021/11/03 08:49:39;;;;;;;17.10;10.65;;;;;;;11.21;66.63;99700.81;4427146;32;32428;-85
2021/11/03 08:52:07;;;;;;;22.80;14.35;;;;;;;11.49;66.20;99695.47;4450013;32;32437;-84
2021/11/03 08:54:40;;;;;;;19.15;11.82;;;;;;;11.60;65.89;99691.66;4439895;32;33894;-84
2021/11/03 08:57:24;;;;;;;22.23;11.45;;;;;;;11.81;65.48;99690.84;4416112;32;33268;-85
2021/11/03 08:59:55;;;;;;;15.30;8.40;;;;;;;11.92;64.44;99689.63;4440551;32;33632;-86
2021/11/03 09:02:24;;;;;;;15.32;9.60;;;;;;;11.99;63.55;99684.16;4416823;32;33455;-84
2021/11/03 09:04:53;;;;;;;18.45;10.05;;;;;;;11.77;64.01;99688.44;4429291;32;33848;-84
2021/11/03 09:07:21;;;;;;;13.98;8.20;;;;;;;11.77;63.92;99688.44;4441457;32;33810;-85
2021/11/03 09:09:50;;;;;;;12.63;7.43;;;;;;;12.17;62.12;99706.09;4433865;32;34711;-85
2021/11/03 09:12:18;;;;;;;20.12;8.38;;;;;;;12.39;61.54;99701.78;4445125;32;33198;-85
2021/11/03 09:14:46;;;;;;;9.73;7.55;;;;;;;12.44;61.52;99707.69;4428743;32;32734;-85
2021/11/03 09:17:17;;;;;;;16.92;8.10;;;;;;;12.63;60.81;99719.13;4431585;32;34107;-84
2021/11/03 09:19:45;;;;;;;12.48;7.53;;;;;;;12.91;59.90;99707.56;4431763;32;33046;-85
2021/11/03 09:22:13;;;;;;;10.90;7.68;;;;;;;12.91;60.52;99712.78;4428593;32;32081;-85
2021/11/03 09:24:41;;;;;;;14.65;7.60;;;;;;;13.44;58.69;99710.59;4441950;32;33506;-85
2021/11/03 09:27:15;;;;;;;12.25;7.15;;;;;;;13.36;58.47;99708.31;4416565;32;32579;-85
2021/11/03 09:29:50;;;;;;;15.05;6.87;;;;;;;13.24;59.08;99704.44;4429680;32;33464;-85
2021/11/03 09:32:21;;;;;;;12.95;6.85;;;;;;;13.53;58.39;99707.59;4434488;32;32147;-85
2021/11/03 09:34:58;;;;;;;9.20;6.15;;;;;;;13.39;58.50;99699.50;4441486;32;34347;-85
2021/11/03 09:37:28;;;;;;;10.02;5.95;;;;;;;13.57;58.00;99703.09;4434134;32;34391;-85
2021/11/03 09:39:58;;;;;;;8.65;5.03;;;;;;;13.87;57.17;99693.00;4442749;32;32554;-85
2021/11/03 09:42:28;;;;;;;8.35;5.87;;;;;;;13.98;55.86;99695.97;4422242;32;32565;-85
2021/11/03 09:44:57;;;;;;;13.32;7.00;;;;;;;14.08;55.98;99688.56;4473962;32;33507;-86
2021/11/03 09:47:29;;;;;;;8.70;5.45;;;;;;;14.28;55.89;99677.16;4440035;32;33526;-86
2021/11/03 09:49:58;;;;;;;;;;;;;;;14.02;56.66;99678.38;4440114;32;33695;-85
2021/11/03 09:52:27;;;;;;;9.93;5.90;;;;;;;14.23;55.88;99675.69;4424258;32;31831;-86
2021/11/03 09:54:58;;;;;;;12.35;6.45;;;;;;;14.60;54.25;99666.88;4451020;32;33409;-85
2021/11/03 09:57:44;;;;;;;12.52;6.60;;;;;;;14.59;55.20;99680.06;4439851;32;34703;-85
2021/11/03 10:00:37;;;;;;;8.82;4.75;;;;;;;14.99;53.97;99678.97;4416817;32;33511;-86
2021/11/03 10:03:46;;;;;;;8.68;4.25;;;;;;;15.04;53.82;99676.13;4428834;32;32345;-85
2021/11/03 10:06:39;;;;;;;9.73;3.70;;;;;;;15.05;53.53;99675.22;4445953;32;33419;-83
2021/11/03 10:09:08;;;;;;;5.70;3.40;;;;;;;15.16;53.00;99672.87;4436742;32;304559;-85
2021/11/03 10:11:39;;;;;;;11.88;5.75;;;;;;;15.08;52.74;99667.19;4426123;32;32466;-85
2021/11/03 10:14:11;;;;;;;8.50;4.10;;;;;;;15.17;52.96;99665.84;4451985;32;33027;-86
2021/11/03 10:16:46;;;;;;;6.20;3.42;;;;;;;15.27;53.38;99659.19;4428590;32;33850;-84
2021/11/03 10:19:16;;;;;;;6.93;3.30;;;;;;;15.45;52.50;99654.78;4429225;32;32729;-85
2021/11/03 10:21:54;;;;;;;8.85;3.28;;;;;;;15.48;52.06;99659.03;4448323;32;33610;-85
2021/11/03 10:24:31;;;;;;;7.05;3.35;;;;;;;15.61;51.36;99649.56;4426437;32;33130;-85
2021/11/03 10:27:09;;;;;;;9.57;3.47;;;;;;;15.68;51.21;99650.09;4427730;32;33974;-84
2021/11/03 10:29:48;;;;;;;7.68;3.35;;;;;;;16.05;49.93;99644.63;4464959;32;33850;-85
2021/11/03 10:32:36;;;;;;;6.75;3.00;;;;;;;16.26;49.95;99643.44;4426060;32;33382;-84
2021/11/03 10:35:14;;;;;;;7.18;3.10;;;;;;;16.29;49.60;99637.16;4429805;32;33027;-85
2021/11/03 10:37:48;;;;;;;12.63;4.53;;;;;;;16.63;48.61;99636.09;4450033;32;34201;-84
2021/11/03 10:40:31;;;;;;;7.82;3.05;;;;;;;16.42;49.15;99624.16;4412785;32;32929;-85
2021/11/03 10:43:01;;;;;;;7.75;3.78;;;;;;;16.59;48.68;99631.09;4445505;32;33460;-86
2021/11/03 10:45:34;;;;;;;5.90;2.70;;;;;;;16.54;47.83;99623.47;4458835;32;32518;-85
2021/11/03 10:48:08;;;;;;;5.28;2.40;;;;;;;16.76;47.53;99627.47;4431874;32;32560;-85
2021/11/03 10:50:42;;;;;;;5.55;2.55;;;;;;;16.50;47.74;99624.59;4454906;32;32731;-85
2021/11/03 10:53:15;;;;;;;4.40;1.67;;;;;;;16.49;47.83;99623.72;4425930;32;33988;-85
2021/11/03 10:56:13;;;;;;;4.30;2.17;;;;;;;16.60;46.53;99617.84;4427545;32;32933;-85
2021/11/03 10:58:49;;;;;;;5.62;1.92;;;;;;;16.63;46.60;99619.44;4422699;32;33967;-85
2021/11/03 11:01:40;;;;;;;5.43;2.80;;;;;;;16.92;46.29;99611.66;4456951;32;33817;-86
2021/11/03 11:04:12;;;;;;;4.90;2.70;;;;;;;16.85;46.71;99606.72;4421359;32;33006;-85
2021/11/03 11:06:43;;;;;;;8.15;2.90;;;;;;;17.11;45.97;99599.09;4436661;32;32973;-85
2021/11/03 11:09:10;;;;;;;5.90;2.53;;;;;;;16.86;46.54;99599.69;4454137;32;34513;-86
2021/11/03 11:11:41;;;;;;;8.60;3.03;;;;;;;17.16;46.04;99588.28;4450553;32;34273;-84
2021/11/03 11:14:18;;;;;;;5.07;2.75;;;;;;;17.18;45.40;99589.06;4413945;32;33254;-86
2021/11/03 11:17:04;;;;;;;3.92;2.40;;;;;;;17.24;45.73;99599.19;4456644;32;32452;-85
2021/11/03 11:19:44;;;;;;;10.10;3.97;;;;;;;17.27;46.03;99595.53;4454502;32;34855;-86
2021/11/03 11:22:53;;;;;;;5.78;2.97;;;;;;;17.32;46.13;99586.44;4438825;32;34541;-86
2021/11/03 11:25:37;;;;;;;8.30;3.15;;;;;;;17.79;44.58;99588.78;4424668;32;33127;-86
2021/11/03 11:28:19;;;;;;;5.87;2.95;;;;;;;18.04;43.69;99588.09;4466800;32;33170;-84
2021/11/03 11:30:55;;;;;;;7.97;3.67;;;;;;;18.18;43.50;99584.59;4441914;32;34338;-85
2021/11/03 11:33:34;;;;;;;9.85;4.70;;;;;;;18.22;43.21;99582.59;4413180;32;33866;-84
2021/11/03 11:36:16;;;;;;;7.03;3.80;;;;;;;18.22;43.31;99579.97;4434026;32;33255;-85
2021/11/03 11:38:55;;;;;;;8.90;3.28;;;;;;;18.08;43.33;99579.09;4436638;32;33137;-85
2021/11/03 11:41:32;;;;;;;6.70;3.58;;;;;;;17.96;43.36;99580.72;4451804;32;32156;-84
2021/11/03 11:44:16;;;;;;;6.32;3.55;;;;;;;17.70;44.08;99577.91;4432632;32;33082;-85
2021/11/03 11:46:46;;;;;;;16.73;4.32;;;;;;;17.46;44.59;99580.28;4435931;32;33443;-84
2021/11/03 11:49:24;;;;;;;5.97;3.75;;;;;;;17.53;44.51;99578.12;4421125;32;33431;-85